Urussanga, Brazil
Current Conditions -  °F | °C
As of 10:00 PM on Thursday 27 Nov 2014 (Local Time) from SBCM Reporting Station
Overcast Overcast  
Wind Chill: 22°   Ceiling: 2700
Heat Index: 22°   Visibility: 6mi
Dew Point: 19°   Wind: 5mph
Humidity: 83%   Direction: 250°WSW
Pressure: 29.97"   Gusts: NA
Location:  28.52°S, 49.32°W
Report Text: SBCM 280000Z 25004KT 9999 FEW010 BKN027 OVC070 22/19 Q1015
Loading
Personal Weather Stations






























Interactive Weather Map New forecast layout! Learn more

10-Day Weather Forecast

Advertisements
Track Severe Weather on mobile